You are not logged in, Click here to log in
ICAO: RKSI Country: 韓國首都首爾
Latitude: 37.4602 Longitude: 126.441
Total Arrivals: 53 Total Departures: 47
Latest Arrival: OZ8532 (RKPK-RKSI)ALAN. LIU Latest Departure: OZ711 (RKSI-RCTP)CHU. CHUHAO
Scenery:
METAR : RKSI 231100Z 29011KT CAVOK 26/18 Q1009 NOSIG

仁川國際機場ICN